Pahrump, Nevada Weather observations

Data are for observation ending at time listed.
 Day   Time    Ave.   Ave.  Ave.  Vector   Max.   Stn.    Total    Solar   Ave.  
  of    of     Air    Rel.  Wind   Wind    Wind   Baro.  Precip.   Rad.    Soil  
Year   Day     Temp.  Hum.  Speed  Dir.    Gust   Pres.                    Temp. 
2026   (PST)    F      %     mph   deg.    mph     mb.     in.     W/m2     F   
------------------------------------------------------------------------------
 129    0:10   71.4    20    0.6   116      1.9   918.2    0.00       0    82.9
 129    0:20   70.3    24    0.0   244      0.4   918.1    0.00       0    82.7
 129    0:30   70.4    22    0.0   236      0.1   918.0    0.00       0    82.5
 129    0:40   70.6    23    0.0   249      0.1   918.0    0.00       0    82.3
 129    0:50   70.3    22    0.0   263      0.1   918.0    0.00       0    82.2
 129    1:00   70.2    21    0.0   303      0.1   918.0    0.00       0    82.0
 129    1:10   70.5    20    0.0   298      0.1   918.1    0.00       0    81.8
 129    1:20   70.5    22    0.0   309      0.1   918.1    0.00       0    81.7
 129    1:30   69.5    23    0.0   274      0.1   918.2    0.00       0    81.5
 129    1:40   68.3    23    0.0   309      0.1   918.1    0.00       0    81.3
 129    1:50   69.0    21    0.0   192      0.1   918.0    0.00       0    81.2
 129    2:00   69.4    20    0.0     0      0.0   918.0    0.00       0    81.0
 129    2:10   70.5    20    0.0   226      0.1   917.9    0.00       0    80.9
 129    2:20   69.5    22    0.0   221      0.1   918.0    0.00       0    80.7
 129    2:30   69.4    21    0.0   306      0.1   918.0    0.00       0    80.6
 129    2:40   69.2    21    0.0     0      0.0   918.1    0.00       0    80.4
 129    2:50   69.5    21    0.0   289      0.1   918.1    0.00       0    80.3
 129    3:00   69.6    21    0.0   330      0.1   918.0    0.00       0    80.2
 129    3:10   68.5    21    0.3   132      1.7   918.0    0.00       0    80.0
 129    3:20   68.2    22    0.1   155      0.9   918.0    0.00       0    79.9
 129    3:30   67.3    24    0.7   264      1.7   918.0    0.00       0    79.7
 129    3:40   66.5    26    0.1   263      0.8   918.0    0.00       0    79.6
 129    3:50   64.8    26    0.0   328      0.1   917.9    0.00       0    79.5
 129    4:00   64.2    24    0.0   349      0.1   917.9    0.00       0    79.3
 129    4:10   64.6    26    0.0   335      0.1   917.9    0.00       0    79.2
 129    4:20   64.5    24    0.0     0      0.0   917.8    0.00       0    79.1
 129    4:30   64.5    24    0.0     0      0.0   917.7    0.00       0    78.9
 129    4:40   64.5    24    0.0     0      0.0   917.8    0.00       1    78.8
 129    4:50   64.6    24    0.0     0      0.0   917.9    0.00       4    78.7
 129    5:00   64.1    27    0.0   254      0.1   918.0    0.00       8    78.5
 129    5:10   62.5    29    0.0   243      0.1   918.1    0.00      14    78.4
 129    5:20   63.0    30    0.0   253      0.3   918.2    0.00      43    78.2
 129    5:30   65.9    26    0.0   188      0.1   918.3    0.00      74    78.1
 129    5:40   69.0    23    0.4   231      2.0   918.5    0.00     100    78.0
 129    5:50   69.3    24    0.8   233      2.6   918.8    0.00     127    77.9
 129    6:00   70.4    23    1.3   287      2.7   919.0    0.00     155    77.8
 129    6:10   70.4    24    0.2   304      1.7   919.3    0.00     185    77.7
 129    6:20   72.2    21    0.7    85      2.5   919.5    0.00     217    77.6
 129    6:30   72.9    19    0.5    60      1.9   919.6    0.00     251    77.6
 129    6:40   73.5    20    0.1   355      0.1   919.8    0.00     285    77.5
 129    6:50   74.3    19    0.1   355      0.1   920.0    0.00     319    77.5
 129    7:00   74.4    20    0.1   355      0.1   920.3    0.00     353    77.4
 129    7:10   74.1    20    0.1   355      0.1   920.4    0.00     386    77.4
 129    7:20   75.1    21    0.1   355      0.1   920.5    0.00     420    77.4
 129    7:30   76.6    19    0.1   355      0.1   920.6    0.00     454    77.4
 129    7:40   77.2    18    0.1   355      0.1   920.8    0.00     486    77.4
 129    7:50   78.5    17    0.1   355      0.1   921.0    0.00     519    77.3
 129    8:00   79.6    15    0.1   355      0.1   921.1    0.00     550    77.3
 129    8:10   80.2    15    0.1   355      0.1   921.3    0.00     581    77.3
 129    8:20   80.5    14    0.1   349      0.1   921.4    0.00     612    77.3
 129    8:30   82.2    13    0.1   310      0.1   921.5    0.00     641    77.5
 129    8:40   82.6    12    0.1   310      0.1   921.6    0.00     670    77.7
 129    8:50   83.0    12    0.0   324      0.1   921.6    0.00     699    77.9
 129    9:00   83.0    12    0.1   287      0.1   921.8    0.00     725    78.3
 129    9:10   84.0    12    0.0   300      0.1   921.9    0.00     751    78.7
 129    9:20   84.0    12    0.0   300      0.1   922.0    0.00     775    79.0
 129    9:30   84.4    12    0.0   259      0.1   922.1    0.00     799    79.3
 129    9:40   85.4    11    0.1   279      0.1   922.1    0.00     821    79.6
 129    9:50   86.4    11    0.0   305      0.1   922.2    0.00     843    80.0
 129   10:00   86.8    11    0.0   310      0.1   922.2    0.00     862    80.4
 129   10:10   88.0    10    0.0   319      0.1   922.3    0.00     881    80.9
 129   10:20   88.7    10    0.0   308      0.1   922.4    0.00     897    81.4
 129   10:30   88.5    10    0.1   265      0.1   922.4    0.00     912    82.0
 129   10:40   90.0     9    0.0   302      0.1   922.4    0.00     924    82.6
 129   10:50   90.8     9    0.1   294      0.1   922.4    0.00     935    83.2
 129   11:00   90.9    10    0.1   268      0.1   922.4    0.00     944    83.8
 129   11:10   91.0     9    0.0   215      0.1   922.4    0.00     953    84.3
 129   11:20   90.4     9    0.1   298      0.1   922.3    0.00     959    84.8
 129   11:30   91.3     8    0.0   312      0.1   922.3    0.00     964    85.3
 129   11:40   90.8     9    0.0   292      0.1   922.2    0.00     966    85.7
 129   11:50   91.2     9    0.0   264      0.1   922.1    0.00     968    86.0
 129   12:00   92.6     9    0.0   284      0.1   922.1    0.00     966    86.3
 129   12:10   93.1     9    0.0   329      0.1   922.0    0.00     964    86.6
 129   12:20   93.4     9    0.0   224      0.1   922.0    0.00     961    86.9
 129   12:30   93.5     9    0.0   232      0.1   922.0    0.00     956    87.2
 129   12:40   93.7     9    0.0   179      0.1   922.0    0.00     949    87.5
 129   12:50   94.6     9    0.0   318      0.1   921.9    0.00     940    87.9
 129   13:00   94.6     9    0.0   301      0.1   921.9    0.00     928    88.2
 129   13:10   94.6     9    0.0   305      0.1   921.9    0.00     917    88.6
 129   13:20   94.3     9    0.0   244      0.1   921.7    0.00     905    88.9
 129   13:30   94.9     9    0.0   292      0.1   921.6    0.00     891    89.2
 129   13:40   95.3     8    0.0   324      0.1   921.5    0.00     874    89.5
 129   13:50   95.5     8    0.0   285      0.1   921.3    0.00     857    89.7
 129   14:00   95.4     8    0.1   346      0.2   921.2    0.00     838    89.7
 129   14:10   96.1     8    0.1   355      0.1   921.0    0.00     817    89.6
 129   14:20   96.4     8    0.1   351      0.1   920.9    0.00     794    89.5
 129   14:30   96.7     8    0.0   270      0.1   920.7    0.00     773    89.3
 129   14:40   96.2     8    0.0   274      0.1   920.5    0.00     749    89.1
 129   14:50   95.6     9    0.1   266      0.1   920.4    0.00     721    88.9
 129   15:00   96.1     8    0.1   276      0.1   920.2    0.00     695    88.8
 129   15:10   97.0     8    0.1   352      0.1   920.1    0.00     667    88.7
 129   15:20   97.3     8    0.1   351      0.1   920.0    0.00     639    88.7
 129   15:30   95.6     8    0.1   284      0.1   919.9    0.00     610    88.8
 129   15:40   95.9     8    0.1   268      0.1   919.9    0.00     578    89.1
 129   15:50   95.4     8    0.1   267      0.1   919.8    0.00     548    89.4
 129   16:00   96.3     8    0.1   293      0.1   919.7    0.00     516    89.7
 129   16:10   95.8     8    0.0   317      0.1   919.5    0.00     483    90.0
 129   16:20   95.4     8    0.1   349      0.1   919.4    0.00     450    90.2
 129   16:30   95.6     8    0.1   355      0.1   919.4    0.00     417    90.5
 129   16:40   95.3     8    0.1   310      0.1   919.4    0.00     384    90.6
 129   16:50   95.6     8    0.0   278      0.1   919.3    0.00     349    90.8
 129   17:00   95.9     8    0.1   284      0.1   919.2    0.00     316    91.0
 129   17:10   94.7     8    0.1   277      0.1   919.2    0.00     281    91.1
 129   17:20   95.0     8    0.1   268      0.1   919.0    0.00     247    91.1
 129   17:30   95.1     8    0.1   300      0.1   919.0    0.00     214    91.1
 129   17:40   95.3     8    0.1   310      0.1   918.9    0.00     182    91.1
 129   17:50   94.8     8    3.0   294      7.7   918.9    0.00     150    91.0
 129   18:00   94.7     8    4.1   297      7.3   918.8    0.00     120    91.0
 129   18:10   93.2     9    2.2   291      6.6   918.8    0.00      92    90.8
 129   18:20   92.2     9    3.8   291      6.1   918.7    0.00      65    90.8
 129   18:30   91.3     9    0.7   294      4.7   918.5    0.00      39    90.6
 129   18:40   89.8    10    0.5   290      3.4   918.5    0.00      15    90.4
 129   18:50   87.9    10    0.3   282      1.8   918.3    0.00       4    90.2
 129   19:00   87.2    10    1.0   290      2.3   918.1    0.00       1    90.0
 129   19:10   85.9    11    0.8   247      2.1   918.1    0.00       0    89.8
 129   19:20   85.3    10    1.2   235      3.7   918.0    0.00       0    89.5
 129   19:30   85.6    10    0.4   222      1.8   918.0    0.00       0    89.3
 129   19:40   85.5    10    0.6    86      2.4   918.1    0.00       0    89.1
 129   19:50   85.4    10    1.6    97      3.1   918.1    0.00       0    88.8
 129   20:00   84.4    10    2.8   107      6.4   918.2    0.00       0    88.6
 129   20:10   83.4    10    5.7   102      8.6   918.3    0.00       0    88.3
 129   20:20   83.5    10    3.3    89      6.1   918.4    0.00       0    88.1
 129   20:30   83.9    10    6.9    98     10.3   918.5    0.00       0    87.9
 129   20:40   83.5    10    5.4   101      9.8   918.7    0.00       0    87.6
 129   20:50   83.1    10    6.4    94      9.1   918.8    0.00       0    87.4
 129   21:00   83.0    11    6.6    91      8.9   918.8    0.00       0    87.2
 129   21:10   83.1    11    5.3    84      8.3   918.8    0.00       0    87.0
 129   21:20   82.8    11    6.9    84     10.5   918.9    0.00       0    86.8
 129   21:30   82.7    11    6.2    87      9.4   918.9    0.00       0    86.7
 129   21:40   82.5    11    3.0    86     11.8   918.9    0.00       0    86.5
 129   21:50   82.3    11    0.0     0      0.0   918.9    0.00       0    86.4
 129   22:00   82.1    11    0.0     0      0.0   918.8    0.00       0    86.2
 129   22:10   81.4    11    0.0     0      0.0   918.8    0.00       0    86.1
 129   22:20   81.2    11    0.0     0      0.0   918.8    0.00       0    85.9
 129   22:30   81.3    11    0.0     0      0.0   918.8    0.00       0    85.8
 129   22:40   81.4    11    0.0     0      0.0   918.8    0.00       0    85.6
 129   22:50   81.4    11    0.0     0      0.0   918.9    0.00       0    85.5
 129   23:00   81.1    11    0.0     0      0.0   919.0    0.00       0    85.4
 129   23:10   81.3    11    0.1   279      2.0   919.1    0.00       0    85.3
 129   23:20   77.8    13    1.1   246      3.8   919.1    0.00       0    85.1
 129   23:30   74.5    15    0.4   226      3.8   919.0    0.00       0    85.0
 129   23:40   73.4    15    0.0   248      0.1   918.8    0.00       0    84.8
 129   23:50   73.8    14    0.1   172      2.8   918.7    0.00       0    84.7
 130    0:00   73.7    14    0.0   210      0.1   918.6    0.00       0    84.6

Return to Pahrump, Nevada graphs page.


Western Regional Climate Center,wrcc@dri.edu